Time;durP1;ratioP1;P1;durP2;ratioP2;P2;SDS_P1;SDS_P2;PMS_P1;PMS_P2;Temp;Humidity;BMP_temperature;BMP_pressure;BME280_temperature;BME280_humidity;BME280_pressure;Samples;Min_cycle;Max_cycle;Signal;HPM_P1;HPM_P2
2022/05/17 00:02:06;;;;;;;16.10;13.43;;;18.00;99.90;;;;;;4992538;28;20035;-59
2022/05/17 00:04:33;;;;;;;16.50;14.10;;;17.90;99.90;;;;;;4993930;28;20046;-59
2022/05/17 00:06:59;;;;;;;15.65;14.00;;;17.80;99.90;;;;;;4992394;28;20033;-61
2022/05/17 00:09:25;;;;;;;16.20;14.50;;;17.80;99.90;;;;;;4993033;28;20080;-58
2022/05/17 00:11:51;;;;;;;17.83;15.57;;;17.70;99.90;;;;;;4992607;28;20113;-60
2022/05/17 00:14:17;;;;;;;16.83;15.18;;;17.70;99.90;;;;;;4993385;28;20034;-59
2022/05/17 00:16:44;;;;;;;17.77;15.65;;;17.60;99.90;;;;;;4993552;28;20042;-58
2022/05/17 00:19:12;;;;;;;17.58;15.43;;;17.50;99.90;;;;;;4992836;28;20045;-59
2022/05/17 00:21:38;;;;;;;21.98;16.83;;;17.50;99.90;;;;;;4993571;28;20034;-58
2022/05/17 00:24:04;;;;;;;17.98;16.08;;;17.40;99.90;;;;;;4993004;28;20038;-57
2022/05/17 00:26:36;;;;;;;19.85;15.82;;;17.50;99.90;;;;;;4992453;28;20421;-58
2022/05/17 00:29:04;;;;;;;17.15;15.45;;;17.50;99.90;;;;;;4992996;28;20506;-57
2022/05/17 00:31:29;;;;;;;18.58;15.93;;;17.60;99.90;;;;;;4992564;28;20026;-58
2022/05/17 00:33:56;;;;;;;17.45;15.75;;;17.50;99.90;;;;;;4992585;28;20045;-60
2022/05/17 00:36:22;;;;;;;17.92;16.10;;;17.60;99.90;;;;;;4993239;28;20038;-58
2022/05/17 00:38:48;;;;;;;19.40;15.27;;;17.40;99.90;;;;;;4993012;28;20042;-57
2022/05/17 00:41:13;;;;;;;15.77;14.18;;;17.50;99.90;;;;;;4992559;28;20041;-55
2022/05/17 00:46:44;;;;;;;15.25;13.75;;;17.50;99.90;;;;;;4993049;28;20469;-56
2022/05/17 00:49:13;;;;;;;15.80;14.10;;;17.40;99.90;;;;;;4992102;28;20026;-59
2022/05/17 00:51:40;;;;;;;16.15;14.55;;;17.30;99.90;;;;;;4992858;28;20022;-57
2022/05/17 00:54:12;;;;;;;15.15;13.50;;;17.40;99.90;;;;;;4992627;28;20507;-56
2022/05/17 00:56:43;;;;;;;17.10;14.50;;;17.40;99.90;;;;;;4992873;28;20041;-59
2022/05/17 00:59:09;;;;;;;19.05;13.27;;;17.40;99.90;;;;;;4972514;28;20133;-59
2022/05/17 01:01:36;;;;;;;15.77;14.13;;;17.30;99.90;;;;;;4992910;28;20057;-59
2022/05/17 01:04:10;;;;;;;14.48;12.98;;;17.30;99.90;;;;;;4992579;28;20022;-59
2022/05/17 01:06:42;;;;;;;14.45;12.80;;;17.20;99.90;;;;;;4992004;28;20088;-58
2022/05/17 01:09:09;;;;;;;13.52;12.13;;;17.30;99.90;;;;;;4992284;28;20042;-57
2022/05/17 01:11:35;;;;;;;15.20;13.55;;;17.30;99.90;;;;;;4992293;28;20545;-59
2022/05/17 01:16:45;;;;;;;14.73;13.27;;;17.40;99.90;;;;;;4992580;28;20030;-59
2022/05/17 01:19:12;;;;;;;14.23;12.75;;;17.40;99.90;;;;;;4992508;28;20383;-58
2022/05/17 01:21:37;;;;;;;14.93;13.40;;;17.30;99.90;;;;;;4992522;28;20066;-59
2022/05/17 01:24:03;;;;;;;14.43;13.13;;;17.40;99.90;;;;;;4991129;28;20100;-59
2022/05/17 01:26:31;;;;;;;17.02;15.27;;;17.40;99.90;;;;;;4990234;28;20120;-56
2022/05/17 01:28:56;;;;;;;16.38;14.80;;;17.40;99.90;;;;;;4992350;28;20456;-59
2022/05/17 01:31:23;;;;;;;18.30;16.50;;;17.40;99.90;;;;;;4991919;28;20061;-57
2022/05/17 01:33:49;;;;;;;18.35;16.50;;;17.30;99.90;;;;;;4994564;28;20095;-58
2022/05/17 01:36:21;;;;;;;19.92;17.95;;;17.40;99.90;;;;;;4995414;28;20075;-57
2022/05/17 01:38:50;;;;;;;21.08;18.80;;;17.30;99.90;;;;;;4995502;28;20034;-59
2022/05/17 01:41:17;;;;;;;22.33;20.27;;;17.30;99.90;;;;;;4995141;28;20069;-58
2022/05/17 01:43:43;;;;;;;24.42;21.63;;;17.30;99.90;;;;;;4994939;28;20498;-57
2022/05/17 01:46:09;;;;;;;22.40;20.20;;;17.20;99.90;;;;;;4995249;28;20096;-58
2022/05/17 01:48:36;;;;;;;24.23;21.75;;;17.30;99.90;;;;;;4995790;28;20038;-58
2022/05/17 01:51:02;;;;;;;24.45;22.15;;;17.10;99.90;;;;;;4995067;28;20479;-57
2022/05/17 01:53:28;;;;;;;24.90;22.30;;;17.10;99.90;;;;;;4994927;28;20142;-58
2022/05/17 01:55:53;;;;;;;24.25;21.60;;;17.00;99.90;;;;;;4994858;28;20066;-59
2022/05/17 01:58:19;;;;;;;22.30;20.10;;;17.00;99.90;;;;;;4992189;28;20042;-57
2022/05/17 02:00:45;;;;;;;22.23;19.88;;;17.10;99.90;;;;;;4995928;28;20070;-58
2022/05/17 02:03:11;;;;;;;20.85;18.85;;;17.10;99.90;;;;;;4993907;28;20042;-58
2022/05/17 02:05:36;;;;;;;21.27;18.33;;;17.00;99.90;;;;;;4994667;28;20034;-59
2022/05/17 02:08:02;;;;;;;20.08;18.08;;;17.00;99.90;;;;;;4994673;28;20117;-59
2022/05/17 02:10:27;;;;;;;20.25;18.17;;;17.00;99.90;;;;;;4995995;28;20435;-59
2022/05/17 02:12:55;;;;;;;17.80;16.02;;;17.00;99.90;;;;;;4994623;28;20031;-58
2022/05/17 02:15:22;;;;;;;20.50;18.15;;;17.00;99.90;;;;;;4993901;28;20034;-57
2022/05/17 02:17:47;;;;;;;19.80;17.70;;;17.00;99.90;;;;;;4995989;28;20030;-58
2022/05/17 02:20:13;;;;;;;20.73;18.10;;;17.00;99.90;;;;;;4995322;28;20439;-57
2022/05/17 02:22:38;;;;;;;20.15;18.00;;;16.90;99.90;;;;;;4995032;28;20403;-58
2022/05/17 02:25:05;;;;;;;20.50;18.30;;;17.00;99.90;;;;;;4994901;28;20088;-59
2022/05/17 02:27:30;;;;;;;21.23;18.92;;;17.10;99.90;;;;;;4992821;28;20034;-58
2022/05/17 02:29:56;;;;;;;20.98;18.98;;;17.00;99.90;;;;;;4995043;28;20039;-56
2022/05/17 02:32:21;;;;;;;20.92;18.73;;;16.80;99.90;;;;;;4992775;28;20041;-58
2022/05/17 02:34:47;;;;;;;22.92;20.13;;;16.90;99.90;;;;;;4994735;28;20031;-58
2022/05/17 02:37:15;;;;;;;22.50;20.10;;;16.90;99.90;;;;;;4992595;28;20097;-58
2022/05/17 02:39:41;;;;;;;22.45;20.15;;;16.80;99.90;;;;;;4994114;28;20148;-58
2022/05/17 02:42:09;;;;;;;23.83;20.27;;;16.90;99.90;;;;;;4994056;28;20031;-58
2022/05/17 02:44:35;;;;;;;24.08;21.58;;;16.90;99.90;;;;;;4993439;28;20446;-57
2022/05/17 02:47:01;;;;;;;24.85;22.20;;;16.70;99.90;;;;;;4993870;28;20038;-58
2022/05/17 02:49:27;;;;;;;23.85;21.33;;;16.60;99.90;;;;;;4994582;28;20026;-59
2022/05/17 02:51:54;;;;;;;25.05;22.20;;;16.60;99.90;;;;;;4993676;28;20050;-56
2022/05/17 02:54:21;;;;;;;22.98;20.50;;;16.70;99.90;;;;;;4994054;28;20029;-57
2022/05/17 02:56:46;;;;;;;25.40;21.75;;;16.70;99.90;;;;;;4994517;28;20117;-59
2022/05/17 02:59:17;;;;;;;22.25;19.95;;;16.80;99.90;;;;;;4992878;28;20545;-58
2022/05/17 03:01:43;;;;;;;22.77;20.48;;;16.70;99.90;;;;;;4993208;28;20043;-58
2022/05/17 03:04:08;;;;;;;24.00;21.20;;;16.80;99.90;;;;;;4993846;28;20038;-59
2022/05/17 03:06:34;;;;;;;22.45;20.15;;;16.80;99.90;;;;;;4993633;28;20062;-59
2022/05/17 03:08:59;;;;;;;22.25;20.00;;;16.70;99.90;;;;;;4994000;28;20564;-59
2022/05/17 03:11:25;;;;;;;21.50;18.98;;;16.70;99.90;;;;;;4994968;28;20398;-57
2022/05/17 03:13:50;;;;;;;21.92;18.88;;;16.70;99.90;;;;;;4994271;28;20077;-58
2022/05/17 03:16:16;;;;;;;19.63;17.65;;;16.80;99.90;;;;;;4993855;28;20038;-59
2022/05/17 03:18:42;;;;;;;20.88;18.83;;;16.70;99.90;;;;;;4991572;28;20049;-59
2022/05/17 03:21:07;;;;;;;21.55;17.40;;;16.80;99.90;;;;;;4993027;28;20037;-58
2022/05/17 03:23:34;;;;;;;21.58;18.40;;;16.90;99.90;;;;;;4994103;28;20042;-58
2022/05/17 03:25:59;;;;;;;20.48;18.35;;;16.80;99.90;;;;;;4993379;28;20199;-56
2022/05/17 03:28:25;;;;;;;20.52;18.35;;;16.80;99.90;;;;;;4993936;28;20078;-58
2022/05/17 03:30:50;;;;;;;21.20;18.80;;;16.70;99.90;;;;;;4994355;28;20510;-58
2022/05/17 03:33:16;;;;;;;19.95;17.85;;;16.70;99.90;;;;;;4992981;28;20031;-56
2022/05/17 03:35:41;;;;;;;21.58;19.48;;;16.80;99.90;;;;;;4993064;28;20089;-59
2022/05/17 03:38:07;;;;;;;22.17;19.55;;;16.80;99.90;;;;;;4992387;28;20038;-57
2022/05/17 03:40:33;;;;;;;23.77;20.58;;;16.80;99.90;;;;;;4976290;28;20113;-58
2022/05/17 03:42:58;;;;;;;21.95;19.70;;;16.80;99.90;;;;;;4992699;28;20111;-58
2022/05/17 03:45:24;;;;;;;21.70;19.55;;;16.90;99.90;;;;;;4991387;28;20042;-55
2022/05/17 03:47:49;;;;;;;24.17;20.77;;;16.90;99.90;;;;;;4993225;28;20121;-58
2022/05/17 03:50:17;;;;;;;24.25;21.55;;;16.90;99.90;;;;;;4992981;28;20027;-56
2022/05/17 03:52:43;;;;;;;24.38;21.77;;;16.90;99.90;;;;;;4993041;28;20117;-58
2022/05/17 03:55:09;;;;;;;24.30;21.50;;;16.90;99.90;;;;;;4992454;28;20100;-58
2022/05/17 03:57:35;;;;;;;23.60;21.13;;;16.90;99.90;;;;;;4992268;28;20061;-57
2022/05/17 04:00:01;;;;;;;23.73;20.77;;;16.80;99.90;;;;;;4992675;28;20034;-58
2022/05/17 04:02:27;;;;;;;22.63;20.13;;;16.70;99.90;;;;;;4991075;28;20117;-56
2022/05/17 04:04:54;;;;;;;22.13;19.55;;;16.80;99.90;;;;;;4990575;28;20169;-58
2022/05/17 04:07:20;;;;;;;21.02;18.80;;;16.70;99.90;;;;;;4992453;28;20087;-58
2022/05/17 04:09:46;;;;;;;21.70;19.45;;;16.70;99.90;;;;;;4993020;28;20034;-58
2022/05/17 04:12:12;;;;;;;20.20;18.20;;;16.60;99.90;;;;;;4992447;28;20386;-57
2022/05/17 04:14:38;;;;;;;20.95;18.85;;;16.60;99.90;;;;;;4992299;28;20026;-59
2022/05/17 04:17:05;;;;;;;20.20;17.98;;;16.70;99.90;;;;;;4990890;28;20030;-57
2022/05/17 04:19:30;;;;;;;21.27;18.00;;;16.70;99.90;;;;;;4991348;28;20382;-57
2022/05/17 04:21:58;;;;;;;21.02;18.85;;;16.60;99.90;;;;;;4991112;28;20118;-59
2022/05/17 04:24:24;;;;;;;20.20;17.95;;;16.60;99.90;;;;;;4992516;28;20065;-55
2022/05/17 04:26:49;;;;;;;22.10;18.30;;;16.70;99.90;;;;;;4990581;28;20041;-60
2022/05/17 04:29:15;;;;;;;21.00;18.38;;;16.70;99.90;;;;;;4991336;28;20038;-57
2022/05/17 04:31:40;;;;;;;23.02;18.98;;;16.70;99.90;;;;;;4990624;28;20034;-57
2022/05/17 04:34:06;;;;;;;19.92;17.80;;;16.70;99.90;;;;;;4989256;28;20038;-59
2022/05/17 04:36:33;;;;;;;20.40;18.15;;;16.90;99.90;;;;;;4990768;28;20129;-58
2022/05/17 04:39:00;;;;;;;22.30;19.45;;;16.90;99.90;;;;;;4989511;28;20566;-57
2022/05/17 04:41:26;;;;;;;25.33;20.50;;;16.80;99.90;;;;;;4990572;28;20098;-59
2022/05/17 04:43:51;;;;;;;22.85;20.35;;;16.90;99.90;;;;;;4990342;28;20047;-57
2022/05/17 04:46:17;;;;;;;27.13;22.58;;;16.80;99.90;;;;;;4990231;28;20038;-59
2022/05/17 04:48:43;;;;;;;28.23;23.15;;;16.70;99.90;;;;;;4989535;28;20042;-60
2022/05/17 04:51:11;;;;;;;27.05;23.63;;;16.70;99.90;;;;;;4991143;28;20050;-59
2022/05/17 04:53:38;;;;;;;31.67;24.98;;;16.70;99.90;;;;;;4990478;28;20022;-58
2022/05/17 04:56:05;;;;;;;27.48;24.45;;;16.80;99.90;;;;;;4990784;28;20111;-57
2022/05/17 04:58:32;;;;;;;31.45;26.55;;;16.80;99.90;;;;;;4990561;28;20045;-57
2022/05/17 05:00:58;;;;;;;34.72;28.40;;;16.80;99.90;;;;;;4990565;28;20042;-59
2022/05/17 05:03:24;;;;;;;36.13;28.92;;;16.80;99.90;;;;;;4990468;28;20080;-55
2022/05/17 05:05:49;;;;;;;37.35;30.98;;;16.80;99.90;;;;;;4990118;28;20447;-60
2022/05/17 05:08:15;;;;;;;34.42;30.50;;;16.70;99.90;;;;;;4992886;28;20402;-60
2022/05/17 05:10:42;;;;;;;36.17;30.83;;;16.90;99.90;;;;;;4994286;28;20073;-58
2022/05/17 05:13:19;;;;;;;36.55;31.58;;;17.00;99.90;;;;;;4994631;28;20118;-59
2022/05/17 05:15:44;;;;;;;35.00;30.63;;;17.10;99.90;;;;;;4993558;28;20568;-60
2022/05/17 05:18:10;;;;;;;35.10;31.17;;;17.10;99.90;;;;;;4994294;28;20038;-60
2022/05/17 05:20:36;;;;;;;42.22;33.92;;;17.10;99.90;;;;;;4994872;28;20113;-60
2022/05/17 05:23:03;;;;;;;39.38;34.60;;;17.00;99.90;;;;;;4996548;28;20452;-59
2022/05/17 05:25:28;;;;;;;41.47;33.08;;;17.00;99.90;;;;;;4995728;28;20026;-59
2022/05/17 05:27:54;;;;;;;42.15;33.65;;;17.10;99.90;;;;;;4994329;28;20121;-58
2022/05/17 05:30:21;;;;;;;40.92;34.78;;;17.10;99.90;;;;;;4991988;28;20443;-59
2022/05/17 05:32:47;;;;;;;39.47;35.00;;;17.10;99.90;;;;;;4991436;28;20057;-57
2022/05/17 05:35:15;;;;;;;43.47;35.17;;;17.00;99.90;;;;;;4994108;28;20474;-59
2022/05/17 05:37:40;;;;;;;44.40;35.22;;;17.10;99.90;;;;;;4992178;28;20042;-60
2022/05/17 05:40:07;;;;;;;47.13;36.83;;;17.10;99.90;;;;;;4993924;28;20026;-58
2022/05/17 05:42:33;;;;;;;43.38;36.45;;;17.10;99.90;;;;;;4992099;28;20034;-56
2022/05/17 05:44:59;;;;;;;46.88;38.17;;;17.10;99.90;;;;;;4993558;28;20042;-60
2022/05/17 05:47:24;;;;;;;45.60;37.47;;;17.10;99.90;;;;;;4991465;28;20078;-59
2022/05/17 05:49:50;;;;;;;48.90;37.80;;;17.00;99.90;;;;;;4992362;28;20058;-59
2022/05/17 05:52:16;;;;;;;48.15;38.88;;;17.10;99.90;;;;;;4992678;28;20027;-55
2022/05/17 05:54:41;;;;;;;51.47;39.70;;;17.00;99.90;;;;;;4993444;28;20056;-59
2022/05/17 05:57:08;;;;;;;48.25;37.83;;;17.10;99.90;;;;;;4991453;28;20042;-58
2022/05/17 05:59:33;;;;;;;47.40;37.38;;;17.10;99.90;;;;;;4992552;28;20061;-57
2022/05/17 06:01:59;;;;;;;46.25;38.60;;;17.20;99.90;;;;;;4975219;28;20058;-58
2022/05/17 06:04:27;;;;;;;48.22;38.20;;;17.00;99.90;;;;;;4993932;28;20487;-59
2022/05/17 06:06:54;;;;;;;46.15;37.78;;;17.00;99.90;;;;;;4990412;28;20027;-59
2022/05/17 06:09:19;;;;;;;58.30;39.67;;;17.00;99.90;;;;;;4991636;28;20038;-59
2022/05/17 06:11:48;;;;;;;46.47;39.00;;;17.10;99.90;;;;;;4989799;28;20058;-61
2022/05/17 06:14:13;;;;;;;46.80;38.10;;;17.10;99.90;;;;;;4994850;28;20046;-58
2022/05/17 06:16:39;;;;;;;44.15;37.55;;;17.20;99.90;;;;;;4994303;28;20461;-58
2022/05/17 06:19:04;;;;;;;46.17;37.78;;;17.30;99.90;;;;;;4995075;28;20056;-56
2022/05/17 06:21:30;;;;;;;44.20;38.58;;;17.20;99.90;;;;;;4996967;28;20478;-58
2022/05/17 06:23:55;;;;;;;47.38;39.05;;;17.20;99.90;;;;;;4995537;28;20042;-59
2022/05/17 06:26:21;;;;;;;46.42;39.22;;;17.20;99.90;;;;;;4996884;28;20034;-57
2022/05/17 06:28:47;;;;;;;45.08;38.25;;;17.20;99.90;;;;;;4996832;28;20033;-59
2022/05/17 06:31:12;;;;;;;50.38;38.08;;;17.30;99.90;;;;;;4993956;28;20034;-61
2022/05/17 06:33:39;;;;;;;44.20;35.20;;;17.40;99.90;;;;;;4995560;28;20050;-58
2022/05/17 06:36:05;;;;;;;42.72;35.97;;;17.50;99.90;;;;;;4992802;28;20052;-59
2022/05/17 06:38:31;;;;;;;45.78;35.35;;;17.70;99.90;;;;;;4994918;28;20105;-60
2022/05/17 06:40:59;;;;;;;44.28;35.67;;;17.60;99.90;;;;;;4994529;28;20446;-61
2022/05/17 06:43:26;;;;;;;45.78;35.45;;;17.70;99.90;;;;;;4994692;28;20517;-59
2022/05/17 06:45:52;;;;;;;41.90;33.45;;;17.90;99.90;;;;;;4994718;28;20062;-58
2022/05/17 06:48:20;;;;;;;46.05;34.58;;;17.80;99.90;;;;;;4995144;28;20137;-56
2022/05/17 06:50:46;;;;;;;50.08;35.95;;;17.70;99.90;;;;;;4995675;28;20105;-60
2022/05/17 06:53:13;;;;;;;39.40;33.30;;;17.60;99.90;;;;;;4993534;28;20058;-59
2022/05/17 06:55:38;;;;;;;41.90;31.92;;;17.70;99.90;;;;;;4993467;28;20037;-59
2022/05/17 06:58:04;;;;;;;42.78;33.13;;;17.70;99.90;;;;;;4995437;28;20038;-59
2022/05/17 07:00:33;;;;;;;35.92;31.60;;;17.70;99.90;;;;;;4995685;28;20057;-58
2022/05/17 07:02:59;;;;;;;39.05;32.38;;;17.70;99.90;;;;;;4993713;28;20514;-59
2022/05/17 07:05:26;;;;;;;37.92;30.75;;;17.70;99.90;;;;;;4994333;28;20125;-60
2022/05/17 07:07:52;;;;;;;38.42;30.38;;;17.60;99.90;;;;;;4994271;28;20038;-58
2022/05/17 07:13:08;;;;;;;35.78;28.73;;;17.50;99.90;;;;;;4993449;28;20030;-59
2022/05/17 07:15:39;;;;;;;33.33;28.00;;;17.60;99.90;;;;;;4994290;28;20477;-58
2022/05/17 07:18:05;;;;;;;35.10;27.48;;;17.70;99.90;;;;;;4994539;28;20134;-58
2022/05/17 07:20:34;;;;;;;36.67;27.75;;;17.70;99.90;;;;;;4994975;28;20030;-56
2022/05/17 07:23:00;;;;;;;36.40;26.45;;;17.70;99.90;;;;;;4992904;28;20034;-59
2022/05/17 07:25:26;;;;;;;33.72;26.58;;;17.90;99.90;;;;;;4990924;28;20158;-58
2022/05/17 07:27:51;;;;;;;30.50;27.05;;;17.90;99.90;;;;;;4990342;28;20525;-61
2022/05/17 07:30:18;;;;;;;36.42;27.92;;;17.90;99.90;;;;;;4992514;28;20109;-59
2022/05/17 07:32:45;;;;;;;32.17;25.13;;;18.00;99.90;;;;;;4992521;28;20102;-59
2022/05/17 07:35:11;;;;;;;35.28;26.30;;;18.10;99.90;;;;;;4976204;28;20445;-57
2022/05/17 07:37:37;;;;;;;34.25;26.33;;;18.10;99.90;;;;;;4992948;28;20042;-59
2022/05/17 07:40:03;;;;;;;27.98;24.92;;;18.10;99.90;;;;;;4991987;28;20037;-59
2022/05/17 07:42:31;;;;;;;31.63;26.23;;;18.20;99.90;;;;;;4976108;28;20037;-57
2022/05/17 07:44:57;;;;;;;29.98;25.10;;;18.20;99.90;;;;;;4992034;28;20034;-58
2022/05/17 07:47:23;;;;;;;31.25;25.52;;;18.30;99.90;;;;;;4992534;28;20038;-60
2022/05/17 07:49:48;;;;;;;32.35;26.55;;;18.40;99.90;;;;;;4992420;28;20037;-60
2022/05/17 07:52:14;;;;;;;34.08;26.55;;;18.50;99.90;;;;;;4992469;28;20438;-59
2022/05/17 07:54:41;;;;;;;31.67;24.70;;;18.40;99.90;;;;;;4992904;28;20027;-59
2022/05/17 07:57:07;;;;;;;32.83;25.55;;;18.50;99.90;;;;;;4992628;28;20118;-58
2022/05/17 07:59:33;;;;;;;31.75;25.20;;;18.50;99.90;;;;;;4992763;28;20042;-59
2022/05/17 08:01:59;;;;;;;29.10;23.77;;;18.50;99.90;;;;;;4988219;28;20113;-58
2022/05/17 08:04:25;;;;;;;32.30;23.30;;;18.80;99.90;;;;;;4993245;28;20066;-59
2022/05/17 08:06:52;;;;;;;29.73;23.50;;;18.80;99.90;;;;;;4992249;28;20097;-60
2022/05/17 08:09:18;;;;;;;27.50;23.52;;;18.80;99.90;;;;;;4992563;28;20030;-59
2022/05/17 08:11:44;;;;;;;27.85;23.90;;;18.90;99.90;;;;;;4993275;28;20023;-58
2022/05/17 08:14:11;;;;;;;31.20;24.20;;;18.90;99.90;;;;;;4994818;28;20034;-59
2022/05/17 08:16:37;;;;;;;34.05;24.02;;;19.10;99.90;;;;;;4992651;28;20027;-59
2022/05/17 08:19:02;;;;;;;27.95;22.27;;;19.20;99.90;;;;;;4992812;28;20407;-57
2022/05/17 08:21:28;;;;;;;26.58;20.73;;;19.30;99.90;;;;;;4993851;28;20118;-62
2022/05/17 08:23:53;;;;;;;24.88;21.35;;;19.40;99.90;;;;;;4993548;28;20046;-58
2022/05/17 08:29:03;;;;;;;26.45;21.33;;;19.30;99.90;;;;;;4993715;28;20038;-58
2022/05/17 08:31:29;;;;;;;25.35;20.27;;;19.30;99.90;;;;;;4991982;28;20630;-58
2022/05/17 08:33:55;;;;;;;25.38;20.98;;;19.30;99.90;;;;;;4992057;28;20117;-58
2022/05/17 08:36:20;;;;;;;25.90;21.27;;;19.20;99.90;;;;;;4991372;28;20340;-59
2022/05/17 08:38:48;;;;;;;28.75;22.88;;;19.30;99.90;;;;;;4990892;28;20089;-57
2022/05/17 08:41:41;;;;;;;27.02;22.38;;;19.20;99.90;;;;;;4993777;28;20030;-59
2022/05/17 08:44:17;;;;;;;29.52;23.05;;;19.30;99.90;;;;;;4993431;28;20065;-60
2022/05/17 08:47:05;;;;;;;25.05;20.55;;;19.50;99.90;;;;;;4996303;28;20030;-61
2022/05/17 08:49:40;;;;;;;23.88;18.90;;;19.80;99.90;;;;;;4985122;28;20038;-61
2022/05/17 08:52:13;;;;;;;25.13;19.30;;;19.80;99.90;;;;;;4996815;28;20019;-58
2022/05/17 08:54:55;;;;;;;25.13;21.38;;;19.70;99.90;;;;;;4996977;28;20061;-58
2022/05/17 08:57:51;;;;;;;24.83;21.45;;;19.70;99.90;;;;;;4995635;28;20077;-59
2022/05/17 09:00:24;;;;;;;25.23;20.92;;;19.70;99.90;;;;;;4996473;28;20036;-59
2022/05/17 09:02:54;;;;;;;25.67;19.02;;;19.70;99.90;;;;;;4996356;28;20033;-59
2022/05/17 09:05:29;;;;;;;24.38;19.73;;;19.50;99.90;;;;;;4996035;28;20157;-59
2022/05/17 09:08:28;;;;;;;23.08;19.08;;;19.50;99.90;;;;;;4997045;28;20165;-59
2022/05/17 09:11:20;;;;;;;25.80;19.35;;;19.80;99.90;;;;;;4997806;28;20031;-56
2022/05/17 09:13:46;;;;;;;25.48;19.63;;;20.00;99.90;;;;;;4994563;28;20022;-60
2022/05/17 09:16:14;;;;;;;23.42;19.92;;;19.80;99.90;;;;;;4996806;28;20026;-58
2022/05/17 09:18:40;;;;;;;22.33;19.35;;;19.70;99.90;;;;;;4995358;28;20630;-57
2022/05/17 09:21:27;;;;;;;22.27;20.10;;;19.80;99.90;;;;;;4995386;28;20034;-58
2022/05/17 09:23:52;;;;;;;22.65;20.27;;;19.90;99.90;;;;;;4994446;28;20038;-59
2022/05/17 09:26:19;;;;;;;29.98;22.27;;;20.00;99.90;;;;;;4995955;28;20035;-60
2022/05/17 09:28:53;;;;;;;21.60;18.05;;;19.90;99.90;;;;;;4995698;28;20053;-60
2022/05/17 09:31:21;;;;;;;23.85;18.13;;;20.10;99.90;;;;;;4996337;28;20037;-60
2022/05/17 09:33:47;;;;;;;17.42;15.55;;;20.20;99.90;;;;;;4996233;28;20043;-59
2022/05/17 09:36:18;;;;;;;21.20;16.85;;;20.10;99.90;;;;;;4995063;28;20022;-60
2022/05/17 09:38:45;;;;;;;23.25;18.95;;;20.30;99.90;;;;;;4994493;28;20030;-60
2022/05/17 09:41:19;;;;;;;24.92;18.58;;;20.20;99.90;;;;;;4995255;28;20124;-59
2022/05/17 09:43:55;;;;;;;22.55;18.70;;;20.40;99.90;;;;;;4996027;28;20030;-61
2022/05/17 09:46:31;;;;;;;22.25;18.35;;;20.50;99.90;;;;;;4995438;28;20042;-58
2022/05/17 09:54:46;;;;;;;15.70;13.60;;;20.70;99.90;;;;;;4995096;28;20023;-58
2022/05/17 09:57:30;;;;;;;19.92;15.98;;;20.80;99.30;;;;;;4978654;28;20054;-60
2022/05/17 10:00:08;;;;;;;19.73;15.93;;;21.00;99.60;;;;;;4995869;28;20065;-59
2022/05/17 10:02:37;;;;;;;15.85;13.57;;;20.90;99.90;;;;;;4996629;28;20050;-59
2022/05/17 10:05:27;;;;;;;18.08;15.23;;;20.80;99.50;;;;;;4995426;28;20030;-57
2022/05/17 10:08:02;;;;;;;18.73;14.20;;;21.00;99.70;;;;;;4994341;28;20097;-60
2022/05/17 10:10:31;;;;;;;19.42;15.57;;;21.10;99.40;;;;;;5005163;28;20034;-57
2022/05/17 10:13:03;;;;;;;20.08;16.20;;;21.20;99.40;;;;;;4995329;28;20034;-58
2022/05/17 10:15:32;;;;;;;18.58;15.05;;;21.30;99.30;;;;;;4995685;28;20027;-58
2022/05/17 10:18:03;;;;;;;17.73;14.82;;;21.50;99.20;;;;;;4994958;28;20121;-57
2022/05/17 10:20:40;;;;;;;17.95;14.25;;;21.40;99.20;;;;;;4995136;28;20045;-59
2022/05/17 10:23:15;;;;;;;15.25;10.07;;;21.40;98.90;;;;;;4995367;28;20056;-59
2022/05/17 10:25:48;;;;;;;17.50;9.82;;;21.40;97.70;;;;;;4993762;28;20026;-58
2022/05/17 10:28:32;;;;;;;13.52;11.93;;;21.20;97.80;;;;;;4994046;28;20081;-56
2022/05/17 10:31:11;;;;;;;16.60;12.93;;;21.30;98.30;;;;;;4995449;28;20035;-60
2022/05/17 10:33:49;;;;;;;13.35;11.10;;;21.40;98.20;;;;;;4995917;28;20034;-57
2022/05/17 10:36:29;;;;;;;14.10;12.25;;;21.90;97.50;;;;;;4994047;28;20035;-59
2022/05/17 10:39:24;;;;;;;13.48;11.32;;;22.00;97.60;;;;;;4993259;28;20081;-58
2022/05/17 10:41:50;;;;;;;17.67;13.27;;;22.10;97.40;;;;;;4995306;28;20026;-57
2022/05/17 10:44:19;;;;;;;17.40;14.13;;;22.20;97.00;;;;;;4974435;28;20124;-58
2022/05/17 10:46:56;;;;;;;17.05;14.27;;;22.20;97.10;;;;;;5003596;28;20056;-57
2022/05/17 10:49:50;;;;;;;17.77;13.40;;;22.10;97.30;;;;;;4994472;28;20027;-59
2022/05/17 10:52:28;;;;;;;17.27;13.80;;;22.10;98.00;;;;;;4989178;28;20022;-60
2022/05/17 10:55:05;;;;;;;22.98;16.02;;;21.80;97.90;;;;;;5001473;28;20030;-59
2022/05/17 10:57:52;;;;;;;16.58;13.68;;;22.00;97.90;;;;;;4994507;28;20673;-61
2022/05/17 11:00:31;;;;;;;15.88;14.23;;;21.90;98.20;;;;;;4994211;28;20434;-60
2022/05/17 11:03:26;;;;;;;18.17;14.88;;;21.90;97.90;;;;;;4972413;28;20061;-59
2022/05/17 11:06:09;;;;;;;18.88;13.38;;;22.00;97.60;;;;;;5004354;28;20038;-56
2022/05/17 11:08:41;;;;;;;15.70;14.05;;;22.00;97.30;;;;;;4995333;28;20383;-57
2022/05/17 11:11:29;;;;;;;21.15;15.45;;;21.70;97.60;;;;;;4993467;28;20097;-58
2022/05/17 11:14:03;;;;;;;18.00;14.63;;;21.70;98.10;;;;;;4994620;28;20109;-57
2022/05/17 11:16:52;;;;;;;17.88;14.35;;;21.60;97.80;;;;;;4991914;28;20026;-57
2022/05/17 11:19:32;;;;;;;18.55;14.23;;;21.60;98.10;;;;;;4993148;28;20058;-58
2022/05/17 11:22:15;;;;;;;14.90;13.40;;;21.60;98.50;;;;;;4993146;28;20397;-58
2022/05/17 11:25:15;;;;;;;18.30;16.05;;;22.00;97.90;;;;;;4993293;28;20023;-58
2022/05/17 11:27:53;;;;;;;18.17;14.93;;;21.90;97.40;;;;;;4993301;28;20030;-57
2022/05/17 11:30:19;;;;;;;20.80;16.02;;;22.20;97.80;;;;;;4993839;28;20034;-57
2022/05/17 11:33:09;;;;;;;19.77;14.70;;;22.20;97.40;;;;;;4994682;28;20549;-59
2022/05/17 11:35:39;;;;;;;16.08;13.52;;;22.50;97.30;;;;;;4994508;28;20034;-60
2022/05/17 11:38:07;;;;;;;18.48;15.25;;;22.60;96.20;;;;;;4994460;28;20031;-59
2022/05/17 11:40:47;;;;;;;18.45;13.52;;;22.70;96.40;;;;;;4995002;28;20499;-61
2022/05/17 11:43:42;;;;;;;16.60;13.02;;;22.90;96.10;;;;;;4994008;28;20042;-61
2022/05/17 11:46:36;;;;;;;18.65;15.15;;;23.10;95.80;;;;;;4976173;28;20101;-58
2022/05/17 11:49:11;;;;;;;21.15;15.05;;;23.10;95.60;;;;;;4981887;28;20027;-60
2022/05/17 11:51:39;;;;;;;17.55;14.73;;;23.20;95.60;;;;;;4988626;28;20049;-59
2022/05/17 11:54:08;;;;;;;16.77;12.07;;;23.00;95.80;;;;;;4993124;28;20598;-58
2022/05/17 11:56:37;;;;;;;19.40;13.15;;;22.80;94.80;;;;;;4991875;28;20030;-60
2022/05/17 11:59:12;;;;;;;17.40;15.15;;;22.40;95.00;;;;;;4992376;28;20501;-54
2022/05/17 12:01:37;;;;;;;16.05;14.38;;;22.30;95.60;;;;;;4992924;28;20042;-58
2022/05/17 12:04:06;;;;;;;18.52;14.32;;;22.40;96.00;;;;;;4992912;28;20080;-59
2022/05/17 12:06:39;;;;;;;23.65;16.15;;;22.40;96.80;;;;;;4993731;28;20101;-58
2022/05/17 12:09:23;;;;;;;19.57;16.70;;;22.40;97.10;;;;;;4992303;28;20026;-58
2022/05/17 12:12:16;;;;;;;32.23;18.20;;;22.30;97.40;;;;;;4993836;28;20034;-59
2022/05/17 12:14:57;;;;;;;20.20;18.25;;;22.40;97.80;;;;;;4991852;28;20039;-59
2022/05/17 12:17:33;;;;;;;22.08;19.25;;;22.00;98.20;;;;;;4991494;28;20042;-59
2022/05/17 12:20:13;;;;;;;21.17;18.20;;;21.90;98.50;;;;;;4994323;28;20031;-57
2022/05/17 12:22:50;;;;;;;17.63;15.70;;;21.60;99.10;;;;;;4993025;28;20045;-58
2022/05/17 12:25:34;;;;;;;19.42;17.33;;;22.00;99.00;;;;;;4992811;28;20034;-57
2022/05/17 12:28:01;;;;;;;20.85;18.33;;;22.10;99.30;;;;;;4987748;28;20521;-58
2022/05/17 12:33:22;;;;;;;22.73;17.30;;;22.10;98.60;;;;;;4990004;28;20475;-60
2022/05/17 12:35:49;;;;;;;19.50;15.60;;;22.00;98.60;;;;;;4991850;28;20092;-61
2022/05/17 12:44:12;;;;;;;17.73;15.77;;;22.20;99.30;;;;;;4992927;28;20038;-60
2022/05/17 12:46:39;;;;;;;18.42;15.15;;;22.30;99.70;;;;;;4993813;28;20101;-59
2022/05/17 12:49:17;;;;;;;16.08;14.00;;;22.50;99.50;;;;;;4993390;28;20034;-57
2022/05/17 12:51:48;;;;;;;14.07;12.55;;;22.50;99.50;;;;;;4994081;28;20463;-59
2022/05/17 12:54:16;;;;;;;12.88;11.68;;;22.50;99.40;;;;;;4992027;28;20069;-62
2022/05/17 12:56:43;;;;;;;14.40;11.93;;;22.50;98.50;;;;;;4993424;28;20026;-60
2022/05/17 12:59:11;;;;;;;17.23;11.52;;;22.20;99.00;;;;;;4995324;28;20125;-55
2022/05/17 13:01:40;;;;;;;17.10;14.95;;;22.40;99.20;;;;;;4995405;28;20035;-60
2022/05/17 13:04:10;;;;;;;12.63;11.32;;;22.80;97.90;;;;;;4993664;28;20505;-59
2022/05/17 13:06:50;;;;;;;13.00;10.35;;;23.10;97.30;;;;;;4992247;28;20376;-59